AirNav   Duncan Aviation - Near you to keep you flying
 
 1099 users online  

7TX4 Hillcrest Airport
Keller, Texas, USA

GOING TO KELLER?


FAA INFORMATION EFFECTIVE 02 DECEMBER 2021

Location

FAA Identifier: 7TX4
Lat/Long: 32-58-00.4490N 097-16-31.0570W
32-58.007483N 097-16.517617W
32.9667914,-97.2752936
(estimated)
Elevation: 710 ft. / 216 m (estimated)
Variation: 07E (1985)
From city: 2 miles N of KELLER, TX
Time zone: UTC -6 (UTC -5 during Daylight Saving Time)
Zip code: 76248

Airport Operations

Airport use: Private use. Permission required prior to landing
Activation date: 04/1983
Control tower: no
ARTCC: FORT WORTH CENTER
FSS: FORT WORTH FLIGHT SERVICE STATION
Attendance: UNATNDD
Wind indicator: yes
Segmented circle: no
Lights: SS-SR

Airport Communications

WX ASOS at AFW (2.6 nm NW): PHONE 817-491-6188
WX ASOS at FTW (10 nm SW): PHONE 817-740-3346
WX ASOS at DFW (13 nm E): PHONE 972-615-2608
WX ASOS at DTO (15 nm N): 119.325 (940-383-8457)
WX AWOS-3P at GPM (20 nm SE): 118.475 (972-606-1433)

Nearby radio navigation aids

VOR radial/distance  VOR name  Freq  Var
FUZr308/6.7RANGER VORTAC115.7006E
TTTr290/13.2MAVERICK VOR/DME113.1006E
CVEr278/19.3COWBOY VOR/DME116.2006E
MQPr059/39.2MILLSAP VORTAC117.7009E

 
NDB name  Hdg/Dist  Freq  Var  ID
MUFIN040/6.636508EFT ..-. -
MESQUITE281/38.824803EPQF .--. --.- ..-.

Airport Services

Runway Information

Runway 17/35

Dimensions: 2000 x 30 ft. / 610 x 9 m
Surface: asphalt
Runway edge lights: low intensity
RUNWAY 17  RUNWAY 35
Traffic pattern: rightleft
Displaced threshold: no340 ft.
Obstructions: none4 ft. fence, 30 ft. from runway

Airport Ownership and Management from official FAA records

Ownership: Privately-owned
Owner: HILLCREST AIRPORT HOMEOWNERS ASSN
12999 HILLCREST BLVD
KELLER, TX 76244
Manager: PRESIDENT OF HOMEOWNERS ASSN
12999 HILLCREST BLVD
KELLER, TX 76244
AMGR EMAIL HOAHILLCREST@YAHOO.COM

Airport Operational Statistics

Aircraft based on the field: 16
Single engine airplanes: 15
Helicopters: 1
    

Additional Remarks

FOR CD CTC REGIONAL APCH AT 972-615-2799.

Instrument Procedures

There are no published instrument procedures at 7TX4.

Some nearby airports with instrument procedures:

KAFW - Fort Worth Alliance Airport (3 nm NW)
KFTW - Fort Worth Meacham International Airport (10 nm SW)
4T2 - Kenneth Copeland Airport (11 nm W)
KDFW - Dallas-Fort Worth International Airport (13 nm E)
KNFW - Fort Worth Naval Air Station JRB (Carswell Field) Airport (15 nm SW)
KDTO - Denton Enterprise Airport (15 nm N)
KGPM - Grand Prairie Municipal Airport (20 nm SE)
 
Loc | Ops | Rwys | IFR | FBO | Links
Com | Nav | Svcs | Stats | Notes

City of Fort Worth
 
Area around 7TX4 (Hillcrest Airport)
 
Road maps at: MapQuest Bing Google
 
Aerial photo
WARNING: Photo may not be current or correct
Aerial photo of 7TX4 (Hillcrest Airport)
Taken in May 2007

Do you have a better or more recent aerial photo of Hillcrest Airport that you would like to share? If so, please send us your photo.

 
Sectional chart

 
Airport distance calculator
Flying to Hillcrest Airport? Find the distance to fly.

From to 7TX4

Sunrise and sunset
Times for 03-Dec-2021
 Local
(UTC-6)
 Zulu
(UTC)
Morning civil twilight06:5012:50
Sunrise07:1713:17
Sunset17:2123:21
Evening civil twilight17:4823:48

Current date and time
Zulu (UTC)  03-Dec-2021 22:56:48
Local (UTC-6)  03-Dec-2021 16:56:48
 
METAR
KAFW 
2nm W 
032153Z 15007KT 10SM BKN180 OVC250 23/17 A2991 RMK AO2 SLP120 T02280172
KFTW 
9nm SW 
032153Z 10005KT 10SM CLR 22/17 A2991 RMK AO2 SLP124 T02220172
KDFW 
14nm E 
032153Z 00000KT 10SM FEW110 BKN150 BKN250 22/17 A2991 RMK AO2 SLP122 VIRGA ALQDS T02220172
KDTO 
14nm N 
032153Z 15006KT 10SM CLR 22/17 A2992 RMK AO2 SLP127 T02220167
KNFW 
15nm SW 
032152Z 13004KT 10SM FEW080 SCT140 BKN250 23/16 A2992 RMK AO2 SLP115 T02330161 VISNO S $
KGPM 
20nm SE 
032150Z 19008KT 10SM SKC 23/15 A2994
TAF
KAFW 
2nm W 
032059Z 0321/0418 19011KT P6SM BKN100 BKN250 FM041300 17005KT P6SM BKN015 TEMPO 0413/0415 4SM BR FM041600 19007KT P6SM SCT025
KFTW 
9nm SW 
032059Z 0321/0418 19011KT P6SM BKN100 BKN250 FM041300 17005KT P6SM BKN015 TEMPO 0413/0415 4SM BR FM041600 19007KT P6SM SCT025
KDFW 
14nm E 
032059Z 0321/0424 19011KT P6SM BKN100 BKN250 FM041300 17005KT P6SM BKN015 TEMPO 0413/0415 4SM BR FM041600 19007KT P6SM SCT025 FM042000 28008KT P6SM SCT020 BKN250
KNFW 
15nm SW 
0317/0415 19007KT 9999 SCT007 BKN1150 BKN250 QNH2995INS FM031830 19009G16KT 9999 BKN100 QNH2985INS BECMG 0401/0402 19009KT 4800 BR SCT005 SCT100 QNH2989INS BECMG 0410/0412 24005KT 4800 BR SCT005 SCT100 QNH2995INS TEMPO 0414/0415 BKN005 T27/0322Z T14/0414Z AMD 1717 FN20048
NOTAMs
Click for the latest NOTAMs
NOTAMs are issued by the DoD/FAA and will open in a separate window not controlled by AirNav.

 

 
 

Would you like to see your business listed on this page?

 If your business provides an interesting product or service to pilots, flight crews, aircraft, or users of the Hillcrest Airport, you should consider listing it here.  To start the listing process, click on the button below
 
Add a business
 

Other Pages about Hillcrest Airport

www.intelcities.com/...
 
Update a link
 
Copyright © AirNav, LLC. All rights reserved. Privacy Policy  Contact